createdAt,value
2022-12-28T00:03:09.813Z,1000.9
2022-12-28T00:08:09.859Z,1001.0
2022-12-28T00:13:09.756Z,1000.9
2022-12-28T00:18:09.823Z,1000.9
2022-12-28T00:23:09.774Z,1000.9
2022-12-28T00:28:09.866Z,1000.8
2022-12-28T00:33:09.745Z,1000.8
2022-12-28T00:38:09.842Z,1000.7
2022-12-28T00:43:09.772Z,1000.9
2022-12-28T00:48:09.820Z,1000.9
2022-12-28T00:53:09.781Z,1000.9
2022-12-28T00:58:09.831Z,1000.9
2022-12-28T01:03:09.841Z,1001.0
2022-12-28T01:13:09.777Z,1001.1
2022-12-28T01:18:09.871Z,1000.8
2022-12-28T01:23:09.782Z,1000.7
2022-12-28T01:28:09.884Z,1000.9
2022-12-28T01:33:09.785Z,1001.1
2022-12-28T01:38:09.851Z,1001.1
2022-12-28T01:48:09.938Z,1000.8
2022-12-28T01:53:09.800Z,1000.7
2022-12-28T01:58:09.849Z,1000.6
2022-12-28T02:03:09.896Z,1000.5
2022-12-28T02:08:09.835Z,1000.5
2022-12-28T02:13:09.841Z,1000.6
2022-12-28T02:18:09.882Z,1000.6
2022-12-28T02:23:09.771Z,1000.5
2022-12-28T02:28:09.899Z,1000.4
2022-12-28T02:33:09.799Z,1000.3
2022-12-28T02:38:09.876Z,1000.3
2022-12-28T02:48:09.883Z,1000.5
2022-12-28T02:53:09.829Z,1000.4
2022-12-28T02:58:09.844Z,1000.4
2022-12-28T03:03:09.822Z,1000.3
2022-12-28T03:08:09.868Z,1000.3
2022-12-28T03:13:09.815Z,1000.4
2022-12-28T03:18:09.893Z,1000.4
2022-12-28T03:23:09.817Z,1000.4
2022-12-28T03:28:09.908Z,1000.3
2022-12-28T03:33:09.837Z,1000.3
2022-12-28T03:43:09.808Z,1000.2
2022-12-28T03:48:09.893Z,1000.3
2022-12-28T03:53:09.816Z,1000.2
2022-12-28T03:58:09.895Z,1000.3
2022-12-28T04:03:09.863Z,1000.2
2022-12-28T04:08:09.909Z,1000.2
2022-12-28T04:13:09.790Z,1000.2
2022-12-28T04:18:09.872Z,999.9
2022-12-28T04:23:09.818Z,1000.0
2022-12-28T04:28:09.929Z,1000.1
2022-12-28T04:33:09.810Z,1000.0
2022-12-28T04:38:09.906Z,1000.1
2022-12-28T04:43:09.803Z,1000.1
2022-12-28T04:48:09.909Z,1000.0
2022-12-28T04:58:09.916Z,1000.0
2022-12-28T05:03:09.829Z,999.9
2022-12-28T05:08:09.916Z,999.6
2022-12-28T05:13:09.812Z,999.5
2022-12-28T05:18:09.914Z,999.6
2022-12-28T05:23:09.830Z,999.7
2022-12-28T05:28:09.899Z,999.8
2022-12-28T05:33:09.833Z,999.6
2022-12-28T05:38:09.930Z,999.5
2022-12-28T05:43:09.819Z,999.3
2022-12-28T05:48:10.018Z,999.4
2022-12-28T05:53:09.833Z,999.5
2022-12-28T05:58:09.894Z,999.4
2022-12-28T06:03:09.932Z,999.5
2022-12-28T06:08:09.901Z,999.5
2022-12-28T06:13:09.830Z,999.4
2022-12-28T06:18:09.890Z,999.2
2022-12-28T06:28:09.947Z,999.2
2022-12-28T06:33:09.833Z,999.2
2022-12-28T06:38:09.929Z,999.1
2022-12-28T06:43:09.851Z,999.1
2022-12-28T06:48:09.922Z,999.1
2022-12-28T06:53:09.834Z,998.9
2022-12-28T06:58:09.920Z,998.8
2022-12-28T07:03:09.848Z,998.8
2022-12-28T07:08:12.732Z,998.8
2022-12-28T07:13:09.852Z,998.7
2022-12-28T07:18:09.982Z,998.6
2022-12-28T07:23:09.820Z,998.6
2022-12-28T07:28:09.907Z,998.5
2022-12-28T07:33:09.828Z,998.5
2022-12-28T07:43:09.850Z,998.4
2022-12-28T07:48:09.946Z,998.4
2022-12-28T07:58:10.024Z,998.2
2022-12-28T08:03:09.927Z,998.1
2022-12-28T08:08:09.899Z,998.1
2022-12-28T08:13:09.855Z,998.0
2022-12-28T08:23:09.840Z,997.8
2022-12-28T08:28:09.907Z,997.7
2022-12-28T08:33:09.841Z,997.5
2022-12-28T08:38:09.905Z,997.5
2022-12-28T08:43:09.846Z,997.4
2022-12-28T08:48:09.891Z,997.3
2022-12-28T08:53:09.855Z,997.2
2022-12-28T08:58:09.900Z,997.2
2022-12-28T09:03:10.055Z,997.1
2022-12-28T09:08:09.938Z,997.1
2022-12-28T09:13:09.845Z,997.0
2022-12-28T09:18:09.938Z,996.9
2022-12-28T09:23:09.842Z,996.8
2022-12-28T09:28:09.911Z,996.7
2022-12-28T09:38:09.920Z,996.4
2022-12-28T09:43:09.868Z,996.3
2022-12-28T09:48:09.947Z,996.2
2022-12-28T09:53:09.874Z,996.1
2022-12-28T09:58:09.953Z,995.9
2022-12-28T10:03:09.936Z,995.9
2022-12-28T10:08:09.958Z,995.8
2022-12-28T10:13:37.033Z,995.7
2022-12-28T10:18:09.951Z,995.5
2022-12-28T10:23:09.871Z,995.3
2022-12-28T10:28:09.928Z,995.2
2022-12-28T10:33:13.857Z,995.0
2022-12-28T10:38:09.917Z,994.9
2022-12-28T10:43:11.260Z,994.7
2022-12-28T10:48:09.923Z,994.5
2022-12-28T10:53:09.868Z,994.3
2022-12-28T10:58:29.981Z,994.2
2022-12-28T11:03:09.921Z,993.9
2022-12-28T11:08:09.919Z,993.8
2022-12-28T11:13:09.916Z,993.6
2022-12-28T11:18:09.921Z,993.4
2022-12-28T11:23:09.866Z,993.2
2022-12-28T11:28:10.057Z,993.0
2022-12-28T11:33:09.908Z,992.8
2022-12-28T11:43:09.928Z,992.5
2022-12-28T11:48:09.941Z,992.3
2022-12-28T11:53:13.809Z,992.1
2022-12-28T11:58:09.974Z,992.0
2022-12-28T12:03:09.900Z,991.8
2022-12-28T12:08:09.952Z,991.6
2022-12-28T12:13:09.950Z,991.4
2022-12-28T12:18:09.980Z,991.2
2022-12-28T12:23:09.875Z,991.1
2022-12-28T12:28:09.992Z,990.9
2022-12-28T12:33:09.886Z,990.7
2022-12-28T12:38:09.959Z,990.6
2022-12-28T12:43:09.900Z,990.4
2022-12-28T12:48:10.064Z,990.2
2022-12-28T12:58:09.949Z,989.8
2022-12-28T13:03:10.023Z,989.6
2022-12-28T13:08:09.956Z,989.5
2022-12-28T13:13:09.905Z,989.3
2022-12-28T13:23:09.947Z,988.8
2022-12-28T13:28:09.966Z,988.7
2022-12-28T13:33:09.909Z,988.4
2022-12-28T13:38:09.964Z,988.2
2022-12-28T13:43:09.917Z,988.1
2022-12-28T13:48:10.026Z,987.8
2022-12-28T13:53:09.935Z,987.7
2022-12-28T14:03:09.911Z,987.3
2022-12-28T14:08:09.996Z,987.1
2022-12-28T14:13:09.968Z,987.0
2022-12-28T14:18:09.918Z,986.8
2022-12-28T14:28:10.000Z,986.6
2022-12-28T14:38:10.086Z,986.3
2022-12-28T14:43:09.925Z,986.0
2022-12-28T14:48:10.019Z,985.8
2022-12-28T14:53:09.939Z,985.6
2022-12-28T14:58:09.982Z,985.5
2022-12-28T15:03:10.076Z,985.5
2022-12-28T15:08:09.989Z,985.4
2022-12-28T15:13:09.916Z,985.3
2022-12-28T15:18:10.008Z,985.2
2022-12-28T15:23:09.906Z,985.1
2022-12-28T15:28:09.984Z,984.9
2022-12-28T15:33:09.924Z,984.9
2022-12-28T15:38:09.996Z,984.8
2022-12-28T15:48:09.990Z,984.7
2022-12-28T15:53:09.924Z,984.8
2022-12-28T15:58:10.019Z,984.8
2022-12-28T16:03:10.021Z,984.9
2022-12-28T16:08:10.058Z,984.9
2022-12-28T16:13:09.943Z,984.8
2022-12-28T16:18:10.002Z,984.9
2022-12-28T16:23:09.937Z,984.8
2022-12-28T16:33:09.933Z,984.5
2022-12-28T16:43:09.937Z,984.8
2022-12-28T16:48:10.005Z,984.8
2022-12-28T16:53:09.929Z,984.8
2022-12-28T17:08:10.062Z,984.9
2022-12-28T17:13:09.941Z,984.9
2022-12-28T17:23:09.925Z,984.8
2022-12-28T17:28:10.010Z,984.7
2022-12-28T17:33:09.949Z,984.6
2022-12-28T17:38:10.008Z,984.8
2022-12-28T17:43:09.963Z,984.8
2022-12-28T17:48:10.009Z,984.6
2022-12-28T17:58:10.006Z,984.5
2022-12-28T18:03:10.021Z,984.5
2022-12-28T18:08:10.043Z,984.5
2022-12-28T18:13:09.946Z,984.4
2022-12-28T18:18:10.004Z,984.3
2022-12-28T18:23:09.957Z,984.3
2022-12-28T18:28:10.011Z,984.3
2022-12-28T18:33:09.951Z,984.4
2022-12-28T18:38:10.050Z,984.4
2022-12-28T18:43:09.948Z,984.3
2022-12-28T18:53:09.939Z,984.3
2022-12-28T18:58:10.003Z,984.3
2022-12-28T19:03:10.092Z,984.3
2022-12-28T19:08:10.003Z,984.3
2022-12-28T19:23:09.943Z,984.3
2022-12-28T19:33:10.002Z,984.2
2022-12-28T19:38:10.011Z,984.1
2022-12-28T19:43:09.972Z,984.1
2022-12-28T19:48:10.031Z,984.1
2022-12-28T19:53:09.952Z,984.2
2022-12-28T20:03:10.075Z,984.1
2022-12-28T20:08:10.007Z,984.0
2022-12-28T20:13:09.971Z,984.0
2022-12-28T20:18:10.003Z,984.0
2022-12-28T20:23:09.962Z,983.9
2022-12-28T20:33:09.992Z,984.0
2022-12-28T20:38:10.113Z,984.0
2022-12-28T20:43:09.976Z,983.8
2022-12-28T20:48:10.054Z,983.8
2022-12-28T20:53:09.973Z,983.7
2022-12-28T20:58:10.049Z,983.8
2022-12-28T21:03:09.930Z,983.8
2022-12-28T21:13:09.956Z,983.8
2022-12-28T21:18:10.052Z,983.7
2022-12-28T21:28:10.066Z,983.7
2022-12-28T21:33:09.958Z,983.6
2022-12-28T21:38:10.024Z,983.6
2022-12-28T21:43:09.960Z,983.5
2022-12-28T21:53:09.961Z,983.6
2022-12-28T21:58:10.019Z,983.5
2022-12-28T22:08:10.040Z,983.3
2022-12-28T22:13:10.017Z,983.2
2022-12-28T22:18:15.755Z,983.2
2022-12-28T22:23:09.962Z,983.0
2022-12-28T22:28:10.065Z,982.9
2022-12-28T22:43:09.974Z,982.8
2022-12-28T22:53:09.924Z,982.7
2022-12-28T22:58:10.065Z,982.8
2022-12-28T23:03:10.060Z,982.7
2022-12-28T23:13:09.973Z,982.6
2022-12-28T23:18:10.025Z,982.5
2022-12-28T23:23:09.969Z,982.6
2022-12-28T23:28:10.089Z,982.6
2022-12-28T23:33:09.950Z,982.6
2022-12-28T23:38:10.062Z,982.5
2022-12-28T23:43:09.987Z,982.4
2022-12-28T23:48:10.032Z,982.4
2022-12-28T23:53:10.023Z,982.2
2022-12-28T23:58:10.063Z,982.3
